Time;durP1;ratioP1;P1;durP2;ratioP2;P2;SDS_P1;SDS_P2;PMS_P1;PMS_P2;Temp;Humidity;BMP_temperature;BMP_pressure;BME280_temperature;BME280_humidity;BME280_pressure;Samples;Min_cycle;Max_cycle;Signal;HPM_P1;HPM_P2
2022/07/22 00:00:37;;;;;;;68.25;65.72;;;23.50;74.30;;;;;;4992639;28;20194;-87
2022/07/22 00:03:02;;;;;;;76.18;73.50;;;23.40;74.90;;;;;;5022502;28;20206;-87
2022/07/22 00:05:28;;;;;;;75.70;72.93;;;23.30;74.90;;;;;;4995863;28;20193;-87
2022/07/22 00:07:54;;;;;;;82.80;79.95;;;23.30;75.00;;;;;;5010233;28;20217;-87
2022/07/22 00:10:19;;;;;;;74.15;71.28;;;23.30;75.60;;;;;;5010620;28;20186;-86
2022/07/22 00:12:45;;;;;;;59.67;57.42;;;23.30;75.40;;;;;;4997817;28;20201;-87
2022/07/22 00:15:11;;;;;;;50.97;49.03;;;23.50;74.30;;;;;;5014226;28;20263;-86
2022/07/22 00:17:38;;;;;;;48.70;46.70;;;23.60;73.30;;;;;;5018587;28;20296;-86
2022/07/22 00:20:05;;;;;;;46.15;44.15;;;23.90;72.30;;;;;;5017090;28;20190;-86
2022/07/22 00:22:31;;;;;;;44.00;42.10;;;24.00;71.80;;;;;;5011458;28;20272;-87
2022/07/22 00:24:56;;;;;;;45.17;43.28;;;24.00;71.80;;;;;;5020466;28;20209;-86
2022/07/22 00:27:22;;;;;;;45.92;44.05;;;23.80;72.30;;;;;;4996705;28;20217;-87
2022/07/22 00:29:48;;;;;;;45.72;43.92;;;23.80;72.50;;;;;;4998065;28;20195;-87
2022/07/22 00:32:13;;;;;;;44.78;42.97;;;23.60;73.20;;;;;;5007840;28;20216;-88
2022/07/22 00:34:39;;;;;;;43.83;42.03;;;23.70;72.40;;;;;;5017133;28;20209;-87
2022/07/22 00:37:06;;;;;;;42.70;40.90;;;23.90;71.80;;;;;;5017629;28;20214;-86
2022/07/22 00:39:32;;;;;;;44.13;42.22;;;23.80;71.40;;;;;;5018106;28;20181;-87
2022/07/22 00:41:58;;;;;;;44.38;42.47;;;24.00;71.20;;;;;;4995570;28;20202;-86
2022/07/22 00:44:24;;;;;;;45.45;43.58;;;24.00;70.70;;;;;;5020735;28;20242;-88
2022/07/22 00:46:50;;;;;;;45.13;43.33;;;24.00;70.60;;;;;;5014213;28;20311;-86
2022/07/22 00:49:15;;;;;;;46.58;44.67;;;24.10;70.60;;;;;;5010843;28;20198;-86
2022/07/22 00:51:41;;;;;;;46.63;44.63;;;24.10;69.90;;;;;;5016159;28;20216;-85
2022/07/22 00:54:08;;;;;;;47.25;45.28;;;24.20;70.00;;;;;;5031835;28;20228;-85
2022/07/22 00:56:33;;;;;;;45.63;43.72;;;24.00;71.60;;;;;;5023126;28;20205;-86
2022/07/22 00:59:04;;;;;;;44.95;43.05;;;23.70;72.50;;;;;;5007104;28;20193;-87
2022/07/22 01:01:29;;;;;;;47.95;45.95;;;23.40;73.90;;;;;;5004408;28;20198;-87
2022/07/22 01:03:55;;;;;;;47.22;45.05;;;23.40;74.20;;;;;;5002444;28;20198;-87
2022/07/22 01:06:21;;;;;;;45.55;43.65;;;23.50;73.80;;;;;;5008892;28;20210;-87
2022/07/22 01:08:47;;;;;;;43.47;41.58;;;23.70;72.80;;;;;;4994646;28;20569;-85
2022/07/22 01:11:16;;;;;;;43.80;42.00;;;23.70;72.30;;;;;;5009525;28;20680;-87
2022/07/22 01:13:42;;;;;;;42.63;40.92;;;23.80;71.90;;;;;;5003067;28;20194;-89
2022/07/22 01:16:10;;;;;;;44.75;42.67;;;23.90;71.70;;;;;;5014581;28;20205;-87
2022/07/22 01:18:37;;;;;;;44.53;42.63;;;23.80;71.80;;;;;;4997648;28;20189;-87
2022/07/22 01:21:04;;;;;;;44.42;42.53;;;23.70;71.90;;;;;;4989361;28;20205;-86
2022/07/22 01:23:29;;;;;;;43.20;41.50;;;23.90;71.50;;;;;;4986969;28;20213;-87
2022/07/22 01:25:55;;;;;;;43.38;41.58;;;23.80;71.80;;;;;;5005593;28;20233;-87
2022/07/22 01:28:21;;;;;;;43.30;41.45;;;23.70;72.60;;;;;;4984995;28;20213;-87
2022/07/22 01:30:49;;;;;;;45.00;43.17;;;23.60;73.10;;;;;;5010604;28;20236;-87
2022/07/22 01:33:17;;;;;;;51.92;49.78;;;23.40;74.40;;;;;;5010995;28;20272;-87
2022/07/22 01:35:43;;;;;;;57.83;55.42;;;23.10;76.30;;;;;;5004729;28;20248;-87
2022/07/22 01:38:09;;;;;;;57.78;55.50;;;22.90;77.70;;;;;;4998937;28;20190;-87
2022/07/22 01:40:34;;;;;;;57.38;54.97;;;23.00;76.70;;;;;;5005948;28;20186;-87
2022/07/22 01:43:00;;;;;;;57.75;55.33;;;23.00;76.40;;;;;;5006473;28;20201;-88
2022/07/22 01:45:26;;;;;;;63.17;60.63;;;23.00;76.20;;;;;;5011221;28;20193;-88
2022/07/22 01:47:52;;;;;;;69.28;66.60;;;22.90;77.00;;;;;;5001508;28;20210;-87
2022/07/22 01:50:18;;;;;;;85.43;82.35;;;22.90;76.80;;;;;;5004155;28;20195;-87
2022/07/22 01:52:43;;;;;;;92.90;89.70;;;22.70;78.20;;;;;;5007007;28;20256;-87
2022/07/22 01:55:10;;;;;;;92.60;89.30;;;22.70;78.50;;;;;;4988752;28;20264;-87
2022/07/22 01:57:38;;;;;;;103.95;100.20;;;22.60;78.60;;;;;;5002691;28;20206;-87
2022/07/22 02:00:08;;;;;;;107.32;103.55;;;22.50;79.70;;;;;;5022740;28;20222;-86
2022/07/22 02:02:35;;;;;;;101.32;97.88;;;22.40;80.00;;;;;;5025851;28;20232;-86
2022/07/22 02:05:02;;;;;;;99.97;96.45;;;22.50;79.50;;;;;;5014488;28;20273;-87
2022/07/22 02:07:27;;;;;;;100.13;96.63;;;22.50;79.40;;;;;;5005491;28;20221;-87
2022/07/22 02:09:53;;;;;;;98.22;94.63;;;22.50;79.00;;;;;;4990136;28;20201;-87
2022/07/22 02:12:19;;;;;;;101.18;97.47;;;22.50;78.90;;;;;;5005372;28;20193;-87
2022/07/22 02:14:45;;;;;;;109.10;105.28;;;22.40;79.00;;;;;;4981375;28;20198;-87
2022/07/22 02:17:12;;;;;;;111.47;107.72;;;22.30;79.50;;;;;;5002071;28;20213;-87
2022/07/22 02:19:38;;;;;;;103.97;100.40;;;22.30;79.90;;;;;;4982106;28;20236;-87
2022/07/22 02:22:03;;;;;;;99.93;96.32;;;22.30;79.30;;;;;;4988579;28;20218;-88
2022/07/22 02:24:29;;;;;;;92.88;89.68;;;22.50;78.60;;;;;;5005523;28;20186;-87
2022/07/22 02:26:55;;;;;;;80.38;77.53;;;22.60;78.00;;;;;;5002789;28;20586;-87
2022/07/22 02:29:20;;;;;;;74.70;71.93;;;22.70;77.20;;;;;;4988720;28;20195;-86
2022/07/22 02:31:46;;;;;;;78.55;75.78;;;22.80;76.10;;;;;;5006277;28;20215;-86
2022/07/22 02:34:12;;;;;;;77.82;75.00;;;22.70;76.50;;;;;;4980961;28;20358;-86
2022/07/22 02:36:37;;;;;;;78.28;75.30;;;22.80;77.10;;;;;;5007490;28;20207;-87
2022/07/22 02:39:03;;;;;;;71.88;69.30;;;22.70;76.90;;;;;;5014093;28;20190;-86
2022/07/22 02:41:29;;;;;;;55.05;52.75;;;22.80;76.60;;;;;;5017710;28;20612;-87
2022/07/22 02:43:55;;;;;;;51.50;49.50;;;22.90;75.50;;;;;;5019705;28;20201;-86
2022/07/22 02:46:23;;;;;;;49.83;47.75;;;22.90;74.80;;;;;;5034556;28;20213;-85
2022/07/22 02:48:48;;;;;;;50.70;48.70;;;23.00;74.60;;;;;;5016540;28;20171;-85
2022/07/22 02:51:14;;;;;;;50.45;48.45;;;22.80;75.00;;;;;;5016300;28;20193;-85
2022/07/22 02:53:40;;;;;;;53.15;51.03;;;22.90;75.00;;;;;;5000148;28;20171;-86
2022/07/22 02:56:06;;;;;;;51.05;48.95;;;22.90;75.60;;;;;;5023581;28;20261;-85
2022/07/22 02:58:31;;;;;;;50.70;48.42;;;22.80;75.30;;;;;;5032771;28;20170;-84
2022/07/22 03:00:57;;;;;;;50.95;48.70;;;22.80;75.40;;;;;;4983719;28;20170;-85
2022/07/22 03:03:23;;;;;;;53.65;51.45;;;22.80;76.20;;;;;;5029458;28;20186;-85
2022/07/22 03:05:49;;;;;;;52.72;50.63;;;22.70;76.30;;;;;;5038431;28;20201;-86
2022/07/22 03:08:15;;;;;;;61.72;59.42;;;22.70;76.70;;;;;;5056312;28;20181;-86
2022/07/22 03:10:41;;;;;;;70.32;67.85;;;22.50;77.70;;;;;;5055133;28;20283;-85
2022/07/22 03:13:07;;;;;;;69.57;66.97;;;22.40;78.10;;;;;;5037510;28;20181;-85
2022/07/22 03:15:32;;;;;;;65.50;63.17;;;22.40;78.40;;;;;;5021434;28;20189;-85
2022/07/22 03:17:58;;;;;;;65.70;63.20;;;22.30;78.70;;;;;;5031244;28;20237;-86
2022/07/22 03:20:24;;;;;;;62.13;59.63;;;22.40;78.50;;;;;;5016122;28;20178;-85
2022/07/22 03:22:49;;;;;;;61.45;59.13;;;22.40;77.90;;;;;;5023942;28;20214;-86
2022/07/22 03:25:15;;;;;;;63.45;61.08;;;22.40;77.80;;;;;;5011925;28;20269;-86
2022/07/22 03:27:40;;;;;;;67.82;65.30;;;22.40;78.40;;;;;;5024322;28;20234;-86
2022/07/22 03:30:07;;;;;;;72.68;70.13;;;22.20;79.80;;;;;;5002779;28;20199;-86
2022/07/22 03:32:32;;;;;;;70.00;67.45;;;22.00;80.50;;;;;;5005212;28;20204;-85
2022/07/22 03:34:58;;;;;;;75.63;72.80;;;22.00;80.90;;;;;;5012013;28;20249;-87
2022/07/22 03:37:24;;;;;;;64.47;62.13;;;22.00;80.60;;;;;;5007485;28;20210;-86
2022/07/22 03:39:49;;;;;;;66.88;64.40;;;22.10;80.00;;;;;;5006411;28;20197;-86
2022/07/22 03:42:15;;;;;;;65.35;62.83;;;22.20;79.80;;;;;;4989676;28;20225;-84
2022/07/22 03:44:40;;;;;;;67.90;65.43;;;22.10;80.10;;;;;;5024912;28;20185;-87
2022/07/22 03:47:06;;;;;;;73.57;70.97;;;22.10;80.30;;;;;;5033180;28;20193;-85
2022/07/22 03:49:32;;;;;;;76.00;73.30;;;21.90;81.00;;;;;;4998986;28;20269;-85
2022/07/22 03:51:58;;;;;;;84.50;81.60;;;21.90;81.40;;;;;;5018407;28;20208;-85
2022/07/22 03:54:24;;;;;;;85.68;82.75;;;21.70;82.30;;;;;;4999418;28;20332;-85
2022/07/22 03:56:49;;;;;;;86.97;83.97;;;21.60;82.90;;;;;;5019187;28;20649;-86
2022/07/22 03:59:16;;;;;;;82.25;79.32;;;21.80;82.50;;;;;;5012532;28;20190;-86
2022/07/22 04:01:42;;;;;;;76.93;74.07;;;21.90;82.20;;;;;;5018590;28;20272;-85
2022/07/22 04:04:08;;;;;;;78.13;75.30;;;21.90;81.30;;;;;;4986313;28;20186;-86
2022/07/22 04:06:34;;;;;;;77.50;74.68;;;21.90;81.20;;;;;;5014084;28;20227;-86
2022/07/22 04:08:59;;;;;;;86.97;83.85;;;21.80;81.60;;;;;;5012903;28;20193;-85
2022/07/22 04:11:26;;;;;;;89.20;86.13;;;21.80;82.00;;;;;;5010085;28;20260;-85
2022/07/22 04:13:52;;;;;;;82.85;79.85;;;21.70;82.30;;;;;;5008526;28;20185;-85
2022/07/22 04:16:17;;;;;;;80.65;77.80;;;21.70;82.00;;;;;;5008252;28;20213;-86
2022/07/22 04:18:43;;;;;;;77.38;74.47;;;21.70;82.00;;;;;;5011639;28;20205;-86
2022/07/22 04:21:09;;;;;;;86.20;83.13;;;21.80;82.00;;;;;;5003106;28;20230;-85
2022/07/22 04:23:35;;;;;;;94.75;91.45;;;21.60;82.50;;;;;;5003625;28;20209;-86
2022/07/22 04:26:01;;;;;;;90.03;86.88;;;21.60;83.00;;;;;;5007317;28;20303;-85
2022/07/22 04:28:26;;;;;;;84.47;81.32;;;21.60;82.80;;;;;;5004188;28;20214;-85
2022/07/22 04:30:52;;;;;;;78.60;75.65;;;21.70;82.40;;;;;;4985617;28;20221;-86
2022/07/22 04:33:18;;;;;;;75.53;72.75;;;21.80;81.60;;;;;;5000839;28;20194;-85
2022/07/22 04:35:44;;;;;;;72.82;70.20;;;21.80;81.30;;;;;;5005914;28;20437;-85
2022/07/22 04:38:09;;;;;;;69.40;66.88;;;21.90;81.10;;;;;;4991971;28;20280;-85
2022/07/22 04:40:35;;;;;;;66.88;64.30;;;21.90;80.80;;;;;;5003466;28;20190;-85
2022/07/22 04:43:01;;;;;;;64.68;62.15;;;22.00;80.40;;;;;;5007171;28;20243;-85
2022/07/22 04:45:27;;;;;;;67.05;64.47;;;22.00;80.40;;;;;;4984452;28;20198;-85
2022/07/22 04:47:52;;;;;;;77.85;74.70;;;21.90;80.70;;;;;;5009712;28;20217;-85
2022/07/22 04:50:18;;;;;;;78.32;75.38;;;21.80;81.20;;;;;;5007733;28;20186;-85
2022/07/22 04:52:44;;;;;;;95.53;92.07;;;21.60;81.80;;;;;;5007076;28;20317;-85
2022/07/22 04:55:09;;;;;;;102.80;99.30;;;21.50;83.10;;;;;;4989544;28;20252;-85
2022/07/22 04:57:35;;;;;;;124.15;119.97;;;21.40;83.00;;;;;;4991266;28;20217;-85
2022/07/22 05:00:01;;;;;;;110.63;106.82;;;21.40;83.30;;;;;;5007013;28;20252;-85
2022/07/22 05:02:26;;;;;;;114.30;110.40;;;21.40;83.60;;;;;;4992487;28;20209;-85
2022/07/22 05:04:52;;;;;;;111.82;107.90;;;21.30;84.70;;;;;;4992706;28;20209;-85
2022/07/22 05:07:18;;;;;;;103.25;99.55;;;21.20;84.60;;;;;;5010337;28;20240;-85
2022/07/22 05:09:43;;;;;;;100.82;97.30;;;21.10;85.50;;;;;;5003717;28;20188;-85
2022/07/22 05:12:09;;;;;;;101.50;98.05;;;21.20;85.60;;;;;;5003208;28;20187;-85
2022/07/22 05:14:34;;;;;;;102.75;98.85;;;21.20;85.10;;;;;;5004524;28;20199;-85
2022/07/22 05:17:00;;;;;;;103.07;99.07;;;21.20;85.30;;;;;;4988155;28;20228;-85
2022/07/22 05:19:26;;;;;;;105.53;101.90;;;21.20;85.30;;;;;;5008442;28;20256;-85
2022/07/22 05:21:51;;;;;;;107.20;103.50;;;21.30;84.70;;;;;;5014388;28;20209;-85
2022/07/22 05:24:17;;;;;;;105.75;102.20;;;21.20;84.50;;;;;;5004962;28;20194;-85
2022/07/22 05:26:43;;;;;;;111.63;107.68;;;21.30;84.50;;;;;;5002328;28;20229;-85
2022/07/22 05:29:08;;;;;;;109.25;105.38;;;21.30;84.10;;;;;;5011413;28;20189;-85
2022/07/22 05:31:34;;;;;;;102.88;99.18;;;21.30;83.90;;;;;;5015511;28;20188;-85
2022/07/22 05:34:00;;;;;;;97.63;94.07;;;21.20;84.50;;;;;;5020973;28;20197;-84
2022/07/22 05:36:26;;;;;;;101.72;97.88;;;21.10;84.80;;;;;;5027897;28;20224;-85
2022/07/22 05:38:51;;;;;;;101.80;98.22;;;21.20;84.70;;;;;;5023844;28;20251;-85
2022/07/22 05:41:17;;;;;;;100.22;96.72;;;21.20;84.40;;;;;;4994644;28;20204;-85
2022/07/22 05:43:43;;;;;;;90.65;87.25;;;21.20;84.30;;;;;;4993257;28;20278;-85
2022/07/22 05:46:08;;;;;;;83.82;80.72;;;21.10;85.30;;;;;;5011331;28;20304;-84
2022/07/22 05:48:34;;;;;;;78.57;75.63;;;21.00;85.20;;;;;;5008400;28;20732;-84
2022/07/22 05:51:00;;;;;;;82.88;79.60;;;21.00;85.50;;;;;;5006703;28;20205;-84
2022/07/22 05:53:26;;;;;;;83.03;79.82;;;21.10;85.20;;;;;;5007225;28;20206;-85
2022/07/22 05:55:51;;;;;;;78.22;75.35;;;21.10;84.90;;;;;;5010292;28;20186;-84
2022/07/22 05:58:17;;;;;;;72.85;69.85;;;21.00;84.90;;;;;;5005832;28;20197;-84
2022/07/22 06:00:43;;;;;;;67.00;64.38;;;20.90;85.20;;;;;;5009437;28;20204;-84
2022/07/22 06:03:08;;;;;;;62.80;60.25;;;20.90;85.50;;;;;;5008307;28;20209;-85
2022/07/22 06:05:37;;;;;;;66.13;63.63;;;20.90;85.40;;;;;;5006733;28;20215;-85
2022/07/22 06:08:04;;;;;;;72.65;69.80;;;21.00;85.80;;;;;;4987753;28;20273;-85
2022/07/22 06:10:30;;;;;;;81.70;78.60;;;21.10;84.20;;;;;;5010941;28;20190;-85
2022/07/22 06:12:56;;;;;;;84.05;80.75;;;21.20;83.70;;;;;;5007147;28;20205;-84
2022/07/22 06:15:21;;;;;;;94.80;91.50;;;21.20;83.40;;;;;;4985322;28;20203;-86
2022/07/22 06:17:47;;;;;;;96.82;93.03;;;21.40;82.70;;;;;;5011895;28;20282;-85
2022/07/22 06:20:12;;;;;;;95.93;92.57;;;21.50;82.90;;;;;;5009532;28;20673;-85
2022/07/22 06:22:41;;;;;;;94.13;90.88;;;21.40;82.50;;;;;;5001978;28;20218;-86
2022/07/22 06:25:08;;;;;;;94.28;91.03;;;21.50;82.60;;;;;;5004250;28;20187;-84
2022/07/22 06:27:34;;;;;;;101.35;97.80;;;21.50;83.40;;;;;;5007824;28;20245;-84
2022/07/22 06:29:59;;;;;;;101.72;98.13;;;21.70;81.40;;;;;;5008522;28;20190;-83
2022/07/22 06:32:25;;;;;;;103.43;99.72;;;21.80;81.00;;;;;;5009546;28;20204;-84
2022/07/22 06:34:51;;;;;;;104.57;100.85;;;21.90;80.60;;;;;;4991587;28;20188;-85
2022/07/22 06:37:16;;;;;;;106.68;103.05;;;21.80;81.40;;;;;;5016702;28;20236;-85
2022/07/22 06:39:42;;;;;;;105.85;102.05;;;21.70;81.10;;;;;;5001967;28;20193;-85
2022/07/22 06:42:08;;;;;;;103.57;99.95;;;21.70;81.10;;;;;;5011099;28;20213;-85
2022/07/22 06:44:33;;;;;;;104.28;100.60;;;21.80;81.30;;;;;;4989287;28;20193;-85
2022/07/22 06:46:59;;;;;;;102.18;98.53;;;21.80;80.80;;;;;;5005983;28;20304;-84
2022/07/22 06:49:25;;;;;;;106.60;102.90;;;21.90;80.40;;;;;;5012797;28;20255;-85
2022/07/22 06:51:50;;;;;;;103.57;100.03;;;22.00;80.20;;;;;;4990698;28;20256;-85
2022/07/22 06:54:16;;;;;;;107.13;103.43;;;21.90;80.10;;;;;;5005633;28;20196;-85
2022/07/22 06:56:42;;;;;;;103.50;99.85;;;22.00;80.10;;;;;;4974342;28;20232;-85
2022/07/22 06:59:08;;;;;;;95.88;92.45;;;22.00;79.00;;;;;;5005394;28;20186;-84
2022/07/22 07:01:33;;;;;;;83.20;80.13;;;22.20;78.20;;;;;;5009455;28;20214;-84
2022/07/22 07:03:59;;;;;;;87.50;84.40;;;22.40;76.60;;;;;;5006704;28;20258;-84
2022/07/22 07:06:25;;;;;;;69.32;66.72;;;22.40;76.60;;;;;;4989198;28;20277;-85
2022/07/22 07:08:50;;;;;;;61.88;58.92;;;22.60;76.10;;;;;;5005616;28;20194;-83
2022/07/22 07:11:16;;;;;;;51.80;49.67;;;22.80;75.70;;;;;;5009781;28;20190;-84
2022/07/22 07:13:42;;;;;;;45.08;43.08;;;22.90;74.60;;;;;;5013932;28;20265;-85
2022/07/22 07:16:07;;;;;;;50.85;48.70;;;22.90;73.80;;;;;;5012351;28;20209;-84
2022/07/22 07:18:33;;;;;;;46.00;43.90;;;22.80;73.90;;;;;;5011801;28;20189;-84
2022/07/22 07:20:59;;;;;;;44.47;42.63;;;23.00;73.40;;;;;;5005035;28;20632;-84
2022/07/22 07:23:24;;;;;;;45.53;43.63;;;23.20;72.80;;;;;;5010120;28;20225;-83
2022/07/22 07:25:52;;;;;;;52.70;50.60;;;23.20;72.70;;;;;;4993443;28;20174;-84
2022/07/22 07:28:17;;;;;;;58.83;56.35;;;23.10;72.60;;;;;;5010312;28;20249;-85
2022/07/22 07:30:43;;;;;;;52.05;49.97;;;23.10;73.40;;;;;;4990877;28;20260;-85
2022/07/22 07:33:09;;;;;;;52.75;50.30;;;23.20;72.60;;;;;;5004962;28;20189;-85
2022/07/22 07:35:35;;;;;;;54.42;52.15;;;23.20;72.10;;;;;;5007438;28;20704;-85
2022/07/22 07:38:00;;;;;;;52.47;50.28;;;23.20;72.40;;;;;;5006067;28;20186;-84
2022/07/22 07:40:26;;;;;;;53.00;50.78;;;23.20;72.10;;;;;;5005300;28;20288;-85
2022/07/22 07:42:52;;;;;;;50.95;48.75;;;23.40;72.40;;;;;;5001884;28;20217;-84
2022/07/22 07:45:18;;;;;;;48.83;46.83;;;23.40;71.80;;;;;;5012670;28;20185;-85
2022/07/22 07:47:44;;;;;;;50.65;48.33;;;23.40;71.60;;;;;;4978756;28;20241;-85
2022/07/22 07:50:10;;;;;;;50.50;48.35;;;23.50;71.80;;;;;;4989567;28;20531;-85
2022/07/22 07:52:44;;;;;;;45.97;43.97;;;23.60;71.40;;;;;;4986180;28;20211;-85
2022/07/22 07:55:11;;;;;;;47.70;45.50;;;23.70;70.70;;;;;;5006446;28;20696;-85
2022/07/22 07:57:37;;;;;;;49.60;47.47;;;23.60;71.00;;;;;;5005360;28;20727;-85
2022/07/22 08:00:07;;;;;;;55.80;53.50;;;23.70;71.30;;;;;;4974582;28;20213;-85
2022/07/22 08:02:34;;;;;;;56.67;54.38;;;23.70;71.60;;;;;;5008920;28;20225;-86
2022/07/22 08:05:01;;;;;;;52.45;50.13;;;23.80;71.70;;;;;;5006121;28;20468;-85
2022/07/22 08:07:27;;;;;;;55.75;53.55;;;23.80;70.30;;;;;;5000036;28;20225;-85
2022/07/22 08:09:53;;;;;;;47.65;45.45;;;23.80;71.20;;;;;;5002094;28;20177;-86
2022/07/22 08:12:19;;;;;;;44.88;42.88;;;24.10;69.90;;;;;;5007167;28;20656;-86
2022/07/22 08:14:44;;;;;;;45.50;43.33;;;24.30;69.30;;;;;;5006853;28;20407;-85
2022/07/22 08:17:10;;;;;;;42.78;40.80;;;24.30;69.60;;;;;;5004176;28;20213;-86
2022/07/22 08:19:36;;;;;;;39.65;37.85;;;24.40;68.70;;;;;;4995996;28;20751;-85
2022/07/22 08:22:02;;;;;;;40.72;38.83;;;24.60;68.50;;;;;;4996859;28;20251;-86
2022/07/22 08:24:27;;;;;;;43.50;41.45;;;24.50;68.60;;;;;;5010033;28;20281;-86
2022/07/22 08:26:53;;;;;;;40.88;39.10;;;24.40;69.70;;;;;;5005460;28;20213;-86
2022/07/22 08:29:19;;;;;;;38.50;36.70;;;24.60;68.10;;;;;;5007271;28;20189;-86
2022/07/22 08:31:45;;;;;;;40.50;38.70;;;25.00;67.20;;;;;;5008737;28;20681;-86
2022/07/22 08:34:10;;;;;;;38.22;36.50;;;25.10;67.00;;;;;;5006137;28;20233;-86
2022/07/22 08:36:36;;;;;;;37.25;35.45;;;25.10;65.90;;;;;;5012332;28;20229;-85
2022/07/22 08:39:02;;;;;;;37.22;35.53;;;25.30;65.30;;;;;;5008961;28;20196;-85
2022/07/22 08:41:34;;;;;;;38.13;36.22;;;25.30;65.20;;;;;;5011702;28;20285;-85
2022/07/22 08:44:01;;;;;;;38.03;36.33;;;25.30;65.30;;;;;;5005196;28;20514;-85
2022/07/22 08:46:26;;;;;;;37.90;36.22;;;25.50;64.00;;;;;;5010858;28;20280;-85
2022/07/22 08:48:54;;;;;;;36.15;34.33;;;25.70;62.60;;;;;;5002608;28;20194;-85
2022/07/22 08:51:21;;;;;;;38.72;37.10;;;25.60;64.50;;;;;;4991113;28;20193;-85
2022/07/22 08:53:46;;;;;;;39.70;37.80;;;25.80;62.90;;;;;;5003217;28;20178;-85
2022/07/22 08:56:13;;;;;;;40.75;38.92;;;26.00;62.20;;;;;;5007113;28;20241;-85
2022/07/22 08:58:40;;;;;;;42.75;40.75;;;26.20;60.10;;;;;;5008015;28;20660;-85
2022/07/22 09:01:08;;;;;;;45.75;43.75;;;26.40;59.60;;;;;;5014701;28;20200;-85
2022/07/22 09:03:47;;;;;;;46.75;44.72;;;26.60;59.00;;;;;;5008731;28;20181;-85
2022/07/22 09:06:13;;;;;;;46.55;44.13;;;26.70;58.70;;;;;;5002231;28;20276;-85
2022/07/22 09:09:00;;;;;;;45.00;43.03;;;26.70;58.20;;;;;;5016518;28;20190;-85
2022/07/22 09:11:28;;;;;;;45.42;43.22;;;26.60;58.60;;;;;;5017132;28;20193;-85
2022/07/22 09:13:54;;;;;;;48.33;46.05;;;26.60;60.00;;;;;;5016347;28;20185;-85
2022/07/22 09:16:38;;;;;;;50.00;47.90;;;26.70;60.40;;;;;;5010406;28;20690;-85
2022/07/22 09:19:04;;;;;;;47.55;45.47;;;26.90;59.20;;;;;;5015118;28;20186;-85
2022/07/22 09:21:30;;;;;;;45.25;43.35;;;26.90;57.60;;;;;;5001374;28;20224;-85
2022/07/22 09:23:56;;;;;;;44.42;42.45;;;26.90;56.30;;;;;;5017695;28;20202;-86
2022/07/22 09:26:33;;;;;;;43.55;41.67;;;27.10;57.60;;;;;;5011749;28;20210;-84
2022/07/22 09:29:00;;;;;;;47.50;45.53;;;27.30;56.30;;;;;;4988647;28;20185;-85
2022/07/22 09:31:37;;;;;;;43.38;41.22;;;27.30;56.60;;;;;;5005045;28;20200;-85
2022/07/22 09:34:04;;;;;;;46.45;44.60;;;27.40;56.10;;;;;;5001116;28;20189;-84
2022/07/22 09:36:30;;;;;;;47.70;45.70;;;27.50;56.40;;;;;;5015904;28;20209;-84
2022/07/22 09:38:56;;;;;;;45.45;43.55;;;27.70;56.60;;;;;;5021430;28;20197;-85
2022/07/22 09:41:22;;;;;;;41.33;39.53;;;27.90;53.70;;;;;;5002742;28;20178;-84
2022/07/22 09:43:51;;;;;;;42.47;40.58;;;27.90;53.30;;;;;;5012562;28;20201;-83
2022/07/22 09:46:34;;;;;;;41.30;39.50;;;28.00;53.60;;;;;;5008627;28;20757;-85
2022/07/22 09:49:00;;;;;;;44.53;42.53;;;27.90;53.40;;;;;;4996374;28;20177;-85
2022/07/22 09:51:26;;;;;;;47.22;45.15;;;28.20;53.90;;;;;;5025778;28;20236;-85
2022/07/22 09:53:52;;;;;;;45.95;43.95;;;28.30;52.20;;;;;;5017695;28;20189;-85
2022/07/22 09:56:18;;;;;;;47.70;45.65;;;28.30;53.10;;;;;;4995707;28;20217;-85
2022/07/22 09:58:44;;;;;;;45.95;43.95;;;28.40;52.60;;;;;;5013026;28;20190;-85
2022/07/22 10:01:10;;;;;;;48.78;46.83;;;28.30;53.30;;;;;;5021085;28;20181;-84
2022/07/22 10:03:38;;;;;;;51.72;49.60;;;28.40;53.80;;;;;;5018108;28;20700;-85
2022/07/22 10:06:05;;;;;;;49.65;47.55;;;28.60;53.00;;;;;;5013764;28;20213;-85
2022/07/22 10:08:33;;;;;;;45.88;43.95;;;28.60;53.30;;;;;;5013553;28;20186;-85
2022/07/22 10:11:08;;;;;;;49.50;47.40;;;28.60;53.30;;;;;;5017314;28;20186;-85
2022/07/22 10:13:34;;;;;;;50.15;48.17;;;28.90;52.20;;;;;;5016502;28;20211;-85
2022/07/22 10:16:01;;;;;;;44.10;42.17;;;28.90;51.90;;;;;;5012371;28;20240;-85
2022/07/22 10:18:29;;;;;;;42.08;40.28;;;29.00;51.10;;;;;;5014238;28;20192;-85
2022/07/22 10:21:30;;;;;;;45.65;43.63;;;29.30;50.20;;;;;;5011299;28;20256;-85
2022/07/22 10:24:10;;;;;;;44.97;43.08;;;29.50;49.10;;;;;;5013052;28;20203;-85
2022/07/22 10:26:47;;;;;;;42.80;40.70;;;29.50;49.00;;;;;;5011749;28;20265;-85
2022/07/22 10:29:28;;;;;;;41.97;40.30;;;29.60;49.10;;;;;;5012955;28;20182;-85
2022/07/22 10:32:16;;;;;;;45.08;43.20;;;29.60;50.20;;;;;;5008670;28;20696;-85
2022/07/22 10:35:03;;;;;;;46.65;44.75;;;29.70;48.90;;;;;;5012101;28;20260;-85
2022/07/22 10:37:34;;;;;;;54.03;51.83;;;29.90;49.10;;;;;;4994247;28;20224;-86
2022/07/22 10:40:24;;;;;;;57.40;55.10;;;30.20;49.20;;;;;;5015046;28;20273;-85
2022/07/22 10:43:06;;;;;;;49.00;47.00;;;30.70;47.60;;;;;;5018467;28;20207;-85
2022/07/22 10:45:41;;;;;;;45.38;43.38;;;30.50;47.80;;;;;;5016164;28;20185;-85
2022/07/22 10:48:09;;;;;;;45.85;43.70;;;30.30;48.10;;;;;;5013885;28;20239;-85
2022/07/22 10:50:38;;;;;;;46.97;45.08;;;30.60;47.20;;;;;;5001264;28;20185;-85
2022/07/22 10:53:05;;;;;;;51.97;49.97;;;30.80;47.90;;;;;;5017267;28;20761;-85
2022/07/22 10:55:31;;;;;;;52.17;50.05;;;30.90;47.20;;;;;;5015731;28;20189;-84
2022/07/22 10:57:58;;;;;;;57.20;55.00;;;31.10;47.30;;;;;;5014680;28;20775;-84
2022/07/22 11:00:24;;;;;;;66.13;63.33;;;31.40;46.40;;;;;;5013368;28;20212;-85
2022/07/22 11:02:49;;;;;;;63.40;60.83;;;31.40;45.40;;;;;;5017367;28;20220;-87
2022/07/22 11:05:25;;;;;;;67.63;65.13;;;31.50;46.20;;;;;;4998627;28;20194;-86
2022/07/22 11:07:51;;;;;;;62.47;60.10;;;31.50;44.80;;;;;;5014326;28;20240;-86
2022/07/22 11:10:20;;;;;;;51.75;49.60;;;31.50;44.70;;;;;;5016141;28;20190;-86
2022/07/22 11:12:48;;;;;;;53.63;51.33;;;31.30;44.30;;;;;;5012378;28;20370;-86
2022/07/22 11:15:16;;;;;;;53.05;50.85;;;31.30;45.40;;;;;;4990896;28;20193;-85
2022/07/22 11:17:42;;;;;;;53.88;51.53;;;31.30;45.80;;;;;;5015520;28;20213;-86
2022/07/22 11:20:11;;;;;;;58.85;56.45;;;31.50;45.80;;;;;;5014717;28;20178;-85
2022/07/22 11:22:38;;;;;;;68.10;65.63;;;31.80;45.00;;;;;;5015423;28;20202;-87
2022/07/22 11:25:07;;;;;;;65.97;63.28;;;32.00;44.80;;;;;;5015242;28;20607;-86
2022/07/22 11:27:33;;;;;;;61.97;59.38;;;32.00;44.70;;;;;;5013715;28;20248;-86
2022/07/22 11:29:59;;;;;;;63.83;61.25;;;31.60;45.60;;;;;;5012385;28;20198;-86
2022/07/22 11:32:30;;;;;;;63.55;61.00;;;31.80;43.70;;;;;;5013647;28;20222;-86
2022/07/22 11:34:56;;;;;;;63.53;60.92;;;31.70;45.10;;;;;;4979033;28;20182;-87
2022/07/22 11:37:23;;;;;;;66.57;64.05;;;31.90;44.30;;;;;;5012153;28;20352;-86
2022/07/22 11:39:50;;;;;;;64.25;61.85;;;32.30;43.70;;;;;;5016851;28;20183;-86
2022/07/22 11:42:16;;;;;;;62.53;60.05;;;32.40;43.60;;;;;;5013378;28;20213;-87
2022/07/22 11:44:42;;;;;;;57.60;55.00;;;32.70;43.10;;;;;;5013582;28;20196;-86
2022/07/22 11:47:09;;;;;;;49.03;47.03;;;32.90;42.40;;;;;;4996037;28;20210;-86
2022/07/22 11:49:37;;;;;;;48.42;46.55;;;33.00;42.90;;;;;;5014489;28;20656;-85
2022/07/22 11:52:14;;;;;;;50.22;48.13;;;33.30;42.50;;;;;;5015978;28;20208;-86
2022/07/22 11:54:42;;;;;;;51.75;49.55;;;33.70;40.80;;;;;;4999837;28;20220;-86
2022/07/22 11:57:08;;;;;;;51.47;49.47;;;33.90;38.80;;;;;;4998369;28;20296;-86
2022/07/22 11:59:35;;;;;;;52.38;50.35;;;34.20;39.20;;;;;;5013299;28;20209;-86
2022/07/22 12:02:01;;;;;;;50.22;48.22;;;34.20;39.60;;;;;;5014054;28;20205;-85
2022/07/22 12:04:30;;;;;;;51.78;49.70;;;34.10;39.80;;;;;;5015744;28;20193;-85
2022/07/22 12:06:58;;;;;;;50.75;48.75;;;34.10;39.10;;;;;;5015270;28;20207;-85
2022/07/22 12:09:26;;;;;;;59.30;56.97;;;34.40;39.20;;;;;;4997912;28;20208;-85
2022/07/22 12:11:55;;;;;;;62.78;60.15;;;34.50;38.50;;;;;;4996717;28;20256;-85
2022/07/22 12:14:23;;;;;;;57.15;55.00;;;34.00;38.70;;;;;;5003945;28;20284;-85
2022/07/22 12:17:00;;;;;;;67.72;65.22;;;34.00;38.80;;;;;;5028098;28;20197;-85
2022/07/22 12:19:29;;;;;;;61.20;58.67;;;34.10;37.50;;;;;;5014198;28;20196;-85
2022/07/22 12:22:15;;;;;;;52.28;50.25;;;34.10;38.00;;;;;;5011658;28;20221;-85
2022/07/22 12:24:46;;;;;;;60.08;57.67;;;34.40;38.80;;;;;;5015887;28;20177;-85